首页
METAR-TAF:

METAR-TAF

机场 :

扎達爾, 克罗地亚

纬度: 44-06N, 经度: 015-21E, 海拔: 82米

当前天气观测

该预报发布于25分钟前的01:00 UTC
风速3节,风向东转东南,在东南之间变化
温度 10°C
湿度 93%
气压 1019 hPa
能见度10公里或以上
1500米以下无云,无积雨云

METAR: LDZD 170100Z 11003KT 080V140 CAVOK 10/09 Q1019

时间: 03:25 (01:25 UTC)

预报

该预报发布于2小时和0分钟前的23:25 UTC
预报有效从17日的 00点(UTC)到 18日的 00点(UTC)
风速2节,风向多变
能见度10公里或以上
1500米以下无云,无积雨云
几率 40% :
短暂存在
从 17日的 00点(UTC)到 17日的 07点(UTC)
能見度: 3000
轻雾, 浅雾
几率 30% :
短暂存在
从 17日的 00点(UTC)到 17日的 06点(UTC)
能見度: 0600
短暂存在
从 17日的 11点(UTC)到 17日的 16点(UTC)
风速7节,风向西北

TAF: LDZD 162325Z 1700/1800 VRB02KT CAVOK TX21/1712Z TN08/1705Z PROB40 TEMPO 1700/1707 3000 BR MIFG PROB30 TEMPO 1700/1706 0600 FG TEMPO 1711/1716 31007KT

超过4000个机场的气象观测和天气预报(METAR&TAF报告)。

可查询的气象台以黄色和红色小点在地图上表示。

将鼠标移到小点上方,可查看气象台名称。

然后点击查看天气观测和预报。

如需切换地图:点击带黑十字的绿色按钮放大地图;点击带横线的绿色按钮缩小地图;或者点击绿色箭头查看邻近地区的地图。


METAR-TAF: